Time;durP1;ratioP1;P1;durP2;ratioP2;P2;SDS_P1;SDS_P2;PMS_P1;PMS_P2;Temp;Humidity;BMP_temperature;BMP_pressure;BME280_temperature;BME280_humidity;BME280_pressure;Samples;Min_cycle;Max_cycle;Signal;HPM_P1;HPM_P2
2023/04/01 00:01:35;;;;;;;1.00;0.90;;;;;;;12.56;66.38;98522.00;5301644;26;33038;-84
2023/04/01 00:04:03;;;;;;;0.30;0.30;;;;;;;12.64;66.40;98530.25;5302248;26;33269;-85
2023/04/01 00:06:32;;;;;;;0.00;0.00;;;;;;;12.53;67.21;98531.03;5284301;26;34071;-85
2023/04/01 00:09:00;;;;;;;0.15;0.15;;;;;;;12.36;67.72;98539.31;5320804;26;33605;-85
2023/04/01 00:11:28;;;;;;;0.00;0.00;;;;;;;12.35;67.94;98532.34;5302434;26;33058;-84
2023/04/01 00:13:56;;;;;;;0.00;0.00;;;;;;;12.59;67.15;98528.91;5302542;26;33596;-85
2023/04/01 00:16:24;;;;;;;0.60;0.60;;;;;;;12.62;66.84;98531.31;5320806;26;33711;-84
2023/04/01 00:18:53;;;;;;;0.45;0.45;;;;;;;12.43;67.73;98535.25;5302596;26;33106;-83
2023/04/01 00:21:22;;;;;;;0.50;0.50;;;;;;;12.36;67.98;98544.63;5302022;26;33611;-85
2023/04/01 00:23:50;;;;;;;0.20;0.20;;;;;;;12.69;67.26;98532.56;5302232;26;33726;-83
2023/04/01 00:26:20;;;;;;;0.00;0.00;;;;;;;12.55;67.46;98534.41;5302650;26;34318;-84
2023/04/01 00:28:50;;;;;;;0.20;0.20;;;;;;;12.77;66.80;98535.47;5303195;26;34629;-83
2023/04/01 00:31:20;;;;;;;0.00;0.00;;;;;;;12.80;66.61;98529.97;5284843;26;34482;-83
2023/04/01 00:33:48;;;;;;;0.35;0.35;;;;;;;12.90;66.23;98523.03;5284556;26;32698;-83
2023/04/01 00:36:19;;;;;;;0.22;0.22;;;;;;;12.92;66.00;98528.25;5295781;26;183960;-83
2023/04/01 00:38:48;;;;;;;0.00;0.00;;;;;;;12.91;66.25;98527.38;5302635;26;34044;-83
2023/04/01 00:41:17;;;;;;;0.22;0.22;;;;;;;13.00;65.99;98524.03;5321068;26;33479;-83
2023/04/01 00:43:48;;;;;;;0.25;0.08;;;;;;;12.93;66.25;98524.63;5284557;26;32596;-83
2023/04/01 00:46:17;;;;;;;0.85;0.62;;;;;;;12.80;66.79;98524.69;5320555;26;33759;-83
2023/04/01 00:48:51;;;;;;;0.20;0.20;;;;;;;12.95;65.98;98528.00;5320945;26;33587;-83
2023/04/01 00:51:23;;;;;;;0.10;0.10;;;;;;;12.79;66.88;98517.69;5320995;26;33916;-83
2023/04/01 00:53:54;;;;;;;0.00;0.00;;;;;;;12.69;66.80;98517.53;5302819;26;33317;-83
2023/04/01 00:56:26;;;;;;;0.00;0.00;;;;;;;12.82;66.78;98522.78;5302655;26;34479;-83
2023/04/01 00:59:03;;;;;;;0.57;0.57;;;;;;;12.87;66.73;98514.50;5302651;26;34010;-83
2023/04/01 01:01:32;;;;;;;0.00;0.00;;;;;;;12.93;66.14;98520.19;5302648;26;32949;-84
2023/04/01 01:04:02;;;;;;;0.57;0.35;;;;;;;12.90;66.27;98524.84;5286654;26;32294;-83
2023/04/01 01:07:15;;;;;;;0.10;0.03;;;;;;;12.76;66.78;98523.19;5305418;26;32285;-83
2023/04/01 01:09:59;;;;;;;0.60;0.40;;;;;;;12.76;66.58;98525.84;5334761;26;34584;-83
2023/04/01 01:12:51;;;;;;;0.68;0.68;;;;;;;12.66;67.07;98522.19;5286764;26;33628;-83
2023/04/01 01:15:34;;;;;;;1.58;0.82;;;;;;;12.52;67.69;98526.66;5304879;26;32866;-83
2023/04/01 01:18:13;;;;;;;;;;;;;;;12.46;67.70;98516.53;5305377;26;33647;-83
2023/04/01 01:21:07;;;;;;;0.10;0.10;;;;;;;12.66;67.36;98514.25;5323135;26;34580;-83
2023/04/01 01:23:53;;;;;;;0.05;0.05;;;;;;;12.77;66.85;98503.69;5305747;26;34195;-82
2023/04/01 01:26:29;;;;;;;0.20;0.15;;;;;;;12.65;66.57;98507.25;5286765;26;32171;-82
2023/04/01 01:29:20;;;;;;;0.15;0.15;;;;;;;12.73;66.90;98513.69;5342660;26;33655;-82
2023/04/01 01:32:36;;;;;;;0.13;0.13;;;;;;;12.66;67.06;98514.25;5304568;26;33111;-82
2023/04/01 01:35:27;;;;;;;0.45;0.10;;;;;;;12.63;66.73;98511.81;5300645;26;32876;-84
2023/04/01 01:38:03;;;;;;;0.43;0.43;;;;;;;12.53;67.17;98507.19;5286205;26;33076;-84
2023/04/01 01:40:32;;;;;;;0.25;0.10;;;;;;;12.69;66.71;98506.94;5286732;26;32912;-83
2023/04/01 01:43:05;;;;;;;0.28;0.28;;;;;;;12.81;66.54;98506.00;5304418;26;33240;-83
2023/04/01 01:45:38;;;;;;;0.03;0.03;;;;;;;12.75;66.48;98510.94;5287119;26;33140;-83
2023/04/01 01:48:07;;;;;;;;;;;;;;;12.90;66.13;98504.50;5322489;26;33283;-83
2023/04/01 01:50:36;;;;;;;2.25;0.93;;;;;;;13.04;65.71;98501.66;5286661;26;33550;-83
2023/04/01 01:53:09;;;;;;;0.10;0.10;;;;;;;13.13;65.04;98510.75;5323181;26;33636;-83
2023/04/01 01:55:41;;;;;;;0.30;0.30;;;;;;;13.05;65.08;98506.03;5305535;26;34442;-83
2023/04/01 01:58:24;;;;;;;0.10;0.10;;;;;;;13.03;65.51;98507.94;5305175;26;34099;-83
2023/04/01 02:00:59;;;;;;;0.20;0.20;;;;;;;13.03;65.20;98505.28;5286640;26;34188;-83
2023/04/01 02:03:31;;;;;;;0.00;0.00;;;;;;;13.30;64.15;98504.22;5322677;26;33907;-83
2023/04/01 02:06:02;;;;;;;0.15;0.15;;;;;;;13.31;63.70;98498.78;5286107;26;32604;-82
2023/04/01 02:08:43;;;;;;;0.30;0.30;;;;;;;13.37;63.38;98500.13;5323311;26;33388;-83
2023/04/01 02:11:19;;;;;;;0.15;0.15;;;;;;;13.00;64.46;98500.19;5305076;26;34741;-82
2023/04/01 02:13:58;;;;;;;2.10;0.62;;;;;;;12.82;65.24;98501.59;5323835;26;34502;-82
2023/04/01 02:17:05;;;;;;;0.37;0.37;;;;;;;12.90;65.15;98499.19;5304902;26;33791;-82
2023/04/01 02:19:41;;;;;;;3.60;1.65;;;;;;;13.28;63.52;98492.87;5322923;26;33002;-83
2023/04/01 02:22:14;;;;;;;0.15;0.15;;;;;;;13.25;63.31;98487.81;5304312;26;33864;-83
2023/04/01 02:24:43;;;;;;;0.10;0.10;;;;;;;12.97;64.27;98481.91;5323221;26;32885;-83
2023/04/01 02:27:11;;;;;;;0.10;0.10;;;;;;;12.95;64.36;98486.44;5287235;26;34289;-82
2023/04/01 02:29:39;;;;;;;1.45;1.35;;;;;;;12.97;64.00;98481.06;5305606;26;33256;-83
2023/04/01 02:32:08;;;;;;;0.10;0.10;;;;;;;12.68;64.95;98485.84;5304398;26;32479;-83
2023/04/01 02:34:38;;;;;;;0.10;0.10;;;;;;;12.59;65.46;98478.59;5285159;26;32984;-83
2023/04/01 02:37:06;;;;;;;0.05;0.05;;;;;;;12.57;65.56;98481.31;5302847;26;33784;-83
2023/04/01 02:39:34;;;;;;;0.43;0.35;;;;;;;12.52;65.82;98472.88;5323265;26;34326;-83
2023/04/01 02:42:02;;;;;;;0.47;0.35;;;;;;;12.59;65.61;98479.44;5323938;26;34179;-83
2023/04/01 02:44:31;;;;;;;0.57;0.57;;;;;;;12.68;65.38;98477.91;5287462;26;32776;-83
2023/04/01 02:46:59;;;;;;;0.00;0.00;;;;;;;12.51;65.46;98482.63;5305214;26;32969;-83
2023/04/01 02:49:27;;;;;;;0.30;0.30;;;;;;;12.53;65.49;98480.72;5305301;26;33090;-83
2023/04/01 02:51:55;;;;;;;0.45;0.37;;;;;;;12.51;65.47;98485.28;5305604;26;32549;-85
2023/04/01 02:54:24;;;;;;;0.55;0.55;;;;;;;12.49;65.43;98487.19;5323284;26;33673;-84
2023/04/01 02:56:53;;;;;;;0.50;0.50;;;;;;;12.51;65.40;98479.97;5287507;26;33029;-84
2023/04/01 02:59:21;;;;;;;0.28;0.28;;;;;;;12.54;65.19;98487.72;5285713;26;32472;-84
2023/04/01 03:01:50;;;;;;;0.30;0.30;;;;;;;12.51;65.20;98484.44;5302943;26;33424;-84
2023/04/01 03:04:18;;;;;;;0.20;0.10;;;;;;;12.65;64.70;98486.06;5302390;26;33397;-83
2023/04/01 03:06:46;;;;;;;0.32;0.15;;;;;;;12.52;64.93;98489.59;5302712;26;34311;-83
2023/04/01 03:09:15;;;;;;;0.08;0.08;;;;;;;12.49;64.98;98495.12;5302918;26;34248;-84
2023/04/01 03:11:43;;;;;;;1.10;0.60;;;;;;;12.78;63.58;98478.94;5302477;26;33922;-84
2023/04/01 03:14:10;;;;;;;1.20;0.50;;;;;;;12.61;63.61;98481.94;5320754;26;33334;-83
2023/04/01 03:16:38;;;;;;;0.00;0.00;;;;;;;12.20;64.94;98477.84;5265958;26;33303;-84
2023/04/01 03:19:06;;;;;;;0.10;0.10;;;;;;;12.24;65.12;98480.16;5340547;26;33226;-84
2023/04/01 03:21:35;;;;;;;0.30;0.30;;;;;;;12.18;65.32;98495.62;5266522;26;33983;-84
2023/04/01 03:24:04;;;;;;;0.20;0.20;;;;;;;12.18;65.18;98496.47;5284422;26;32759;-83
2023/04/01 03:26:32;;;;;;;0.20;0.13;;;;;;;12.12;65.17;98480.19;5320777;26;35004;-83
2023/04/01 03:29:02;;;;;;;0.20;0.20;;;;;;;12.12;65.39;98494.28;5302351;26;33320;-83
2023/04/01 03:31:31;;;;;;;0.62;0.47;;;;;;;12.05;65.59;98495.66;5321671;26;34258;-84
2023/04/01 03:34:00;;;;;;;0.05;0.05;;;;;;;12.09;65.29;98497.13;5302587;26;34155;-83
2023/04/01 03:36:28;;;;;;;0.77;0.47;;;;;;;12.15;65.00;98501.13;5302175;26;33446;-83
2023/04/01 03:38:56;;;;;;;0.00;0.00;;;;;;;12.04;65.43;98505.38;5321068;26;34069;-83
2023/04/01 03:41:25;;;;;;;0.10;0.10;;;;;;;12.02;65.40;98509.09;5302564;26;32459;-83
2023/04/01 03:43:55;;;;;;;0.00;0.00;;;;;;;11.96;65.40;98507.75;5320831;26;33669;-83
2023/04/01 03:46:23;;;;;;;0.10;0.10;;;;;;;11.99;65.45;98506.66;5320785;26;33965;-83
2023/04/01 03:48:52;;;;;;;0.00;0.00;;;;;;;12.05;65.16;98519.47;5302683;26;32982;-83
2023/04/01 03:51:20;;;;;;;0.30;0.30;;;;;;;12.00;65.25;98514.47;5320462;26;34471;-83
2023/04/01 03:53:49;;;;;;;0.00;0.00;;;;;;;12.12;64.67;98509.31;5302713;26;33202;-84
2023/04/01 03:56:19;;;;;;;0.15;0.15;;;;;;;12.32;63.45;98518.47;5320535;26;33509;-84
2023/04/01 03:58:47;;;;;;;0.35;0.35;;;;;;;12.26;63.25;98525.06;5302587;26;33593;-83
2023/04/01 04:01:23;;;;;;;0.10;0.10;;;;;;;11.95;63.93;98519.25;5320691;26;33868;-84
2023/04/01 04:03:53;;;;;;;0.68;0.68;;;;;;;11.80;64.69;98517.66;5321450;26;33426;-83
2023/04/01 04:06:23;;;;;;;0.15;0.15;;;;;;;11.88;64.38;98531.22;5320734;26;33878;-83
2023/04/01 04:08:51;;;;;;;0.55;0.35;;;;;;;11.66;64.88;98530.97;5302477;26;32425;-84
2023/04/01 04:11:26;;;;;;;2.25;0.90;;;;;;;11.57;65.12;98526.31;5302275;26;32643;-85
2023/04/01 04:13:55;;;;;;;0.20;0.20;;;;;;;11.74;64.62;98531.31;5303064;26;34433;-85
2023/04/01 04:16:26;;;;;;;0.30;0.30;;;;;;;11.66;64.41;98528.31;5303031;26;32535;-85
2023/04/01 04:18:55;;;;;;;0.45;0.40;;;;;;;11.66;64.69;98530.97;5302303;26;33698;-84
2023/04/01 04:21:24;;;;;;;0.05;0.05;;;;;;;11.50;65.15;98521.44;5302162;26;32714;-84
2023/04/01 04:23:54;;;;;;;0.40;0.40;;;;;;;11.53;65.15;98521.22;5302426;26;32972;-84
2023/04/01 04:26:23;;;;;;;0.10;0.10;;;;;;;11.53;65.10;98534.44;5302632;26;35746;-84
2023/04/01 04:28:52;;;;;;;0.00;0.00;;;;;;;11.68;64.34;98521.13;5302440;26;32351;-83
2023/04/01 04:31:22;;;;;;;0.30;0.30;;;;;;;11.72;63.61;98522.59;5321270;26;33517;-84
2023/04/01 04:33:51;;;;;;;0.43;0.43;;;;;;;11.45;63.87;98520.91;5302251;26;32675;-84
2023/04/01 04:36:21;;;;;;;0.00;0.00;;;;;;;11.57;63.61;98518.38;5302203;26;33887;-84
2023/04/01 04:38:57;;;;;;;0.70;0.52;;;;;;;11.62;62.78;98524.19;5286984;26;33040;-84
2023/04/01 04:41:28;;;;;;;0.00;0.00;;;;;;;11.31;63.93;98521.00;5284686;26;32737;-83
2023/04/01 04:43:58;;;;;;;0.20;0.20;;;;;;;11.22;64.28;98521.59;5301854;26;32784;-84
2023/04/01 04:46:28;;;;;;;0.00;0.00;;;;;;;11.17;64.65;98518.44;5302377;26;34256;-84
2023/04/01 04:48:59;;;;;;;0.35;0.35;;;;;;;11.15;64.76;98515.88;5302606;26;33597;-83
2023/04/01 04:51:30;;;;;;;;;;;;;;;11.16;64.86;98514.09;5320577;26;32956;-83
2023/04/01 04:54:05;;;;;;;0.20;0.10;;;;;;;11.32;64.11;98519.19;5340409;26;34678;-83
2023/04/01 04:56:36;;;;;;;0.13;0.08;;;;;;;11.17;64.55;98518.44;5302686;26;33085;-82
2023/04/01 04:59:06;;;;;;;0.15;0.15;;;;;;;11.07;65.22;98527.91;5301589;26;32720;-83
2023/04/01 05:01:40;;;;;;;0.03;0.03;;;;;;;11.42;63.77;98520.25;5285779;26;33165;-83
2023/04/01 05:04:15;;;;;;;0.37;0.37;;;;;;;11.31;64.04;98520.16;5321933;26;34547;-82
2023/04/01 05:06:45;;;;;;;0.00;0.00;;;;;;;11.49;63.23;98522.41;5302294;26;33158;-83
2023/04/01 05:09:14;;;;;;;0.00;0.00;;;;;;;11.27;63.94;98520.34;5301968;26;33667;-83
2023/04/01 05:11:54;;;;;;;0.00;0.00;;;;;;;11.19;64.87;98521.78;5322823;26;34311;-83
2023/04/01 05:14:33;;;;;;;0.55;0.55;;;;;;;11.31;64.90;98521.00;5322417;26;33683;-83
2023/04/01 05:17:03;;;;;;;0.00;0.00;;;;;;;11.36;65.13;98512.75;5302752;26;33407;-83
2023/04/01 05:19:33;;;;;;;3.12;1.42;;;;;;;11.47;64.97;98520.78;5302168;26;32077;-83
2023/04/01 05:22:05;;;;;;;0.65;0.65;;;;;;;11.61;64.68;98522.50;5302508;26;34180;-84
2023/04/01 05:24:48;;;;;;;0.00;0.00;;;;;;;11.51;65.55;98522.28;5305438;26;34637;-83
2023/04/01 05:27:19;;;;;;;0.00;0.00;;;;;;;11.59;65.73;98529.72;5303012;26;33757;-83
2023/04/01 05:29:55;;;;;;;0.08;0.08;;;;;;;11.68;66.04;98532.56;5286060;26;33227;-83
2023/04/01 05:32:27;;;;;;;0.00;0.00;;;;;;;11.94;65.27;98522.00;5302078;26;32642;-82
2023/04/01 05:34:59;;;;;;;0.30;0.30;;;;;;;12.07;65.44;98522.00;5284902;26;33159;-82
2023/04/01 05:37:32;;;;;;;0.00;0.00;;;;;;;12.23;65.00;98525.25;5321347;26;33834;-82
2023/04/01 05:40:04;;;;;;;0.00;0.00;;;;;;;12.19;65.00;98529.06;5303652;26;32969;-82
2023/04/01 05:42:37;;;;;;;0.00;0.00;;;;;;;12.23;65.04;98527.91;5301091;26;32162;-82
2023/04/01 05:45:08;;;;;;;0.00;0.00;;;;;;;12.48;64.55;98535.78;5320639;26;34901;-82
2023/04/01 05:47:43;;;;;;;0.20;0.20;;;;;;;12.62;63.92;98532.16;5321841;26;34662;-82
2023/04/01 05:50:22;;;;;;;0.00;0.00;;;;;;;12.62;63.79;98532.16;5302738;26;32402;-82
2023/04/01 05:52:55;;;;;;;0.00;0.00;;;;;;;12.55;64.01;98525.62;5321053;26;33999;-82
2023/04/01 05:55:24;;;;;;;0.00;0.00;;;;;;;12.55;64.00;98522.97;5301544;26;33336;-82
2023/04/01 05:57:54;;;;;;;0.00;0.00;;;;;;;12.69;63.62;98532.56;5302540;26;34350;-82
2023/04/01 06:00:30;;;;;;;0.30;0.30;;;;;;;12.66;63.31;98527.47;5302407;26;33704;-84
2023/04/01 06:03:11;;;;;;;0.00;0.00;;;;;;;12.95;62.12;98526.19;5289416;26;35681;-82
2023/04/01 06:05:48;;;;;;;0.00;0.00;;;;;;;12.88;62.74;98527.63;5303767;26;33828;-82
2023/04/01 06:08:21;;;;;;;0.00;0.00;;;;;;;12.90;62.32;98524.84;5321277;26;34633;-82
2023/04/01 06:11:01;;;;;;;0.00;0.00;;;;;;;12.94;61.30;98526.31;5285220;26;33429;-82
2023/04/01 06:17:00;;;;;;;0.10;0.10;;;;;;;13.30;61.16;98522.78;5323211;26;33892;-82
2023/04/01 06:19:38;;;;;;;0.00;0.00;;;;;;;13.40;61.25;98515.81;5321103;26;33862;-82
2023/04/01 06:22:30;;;;;;;0.20;0.20;;;;;;;13.32;61.47;98523.50;5321108;26;33848;-82
2023/04/01 06:25:14;;;;;;;0.65;0.60;;;;;;;13.63;59.90;98511.41;5303198;26;32618;-82
2023/04/01 06:27:56;;;;;;;0.20;0.20;;;;;;;13.66;59.25;98512.97;5321637;26;33511;-82
2023/04/01 06:30:42;;;;;;;0.00;0.00;;;;;;;13.67;59.11;98515.50;5320619;26;33119;-82
2023/04/01 06:33:19;;;;;;;0.00;0.00;;;;;;;13.74;58.72;98518.53;5303765;26;32852;-82
2023/04/01 06:36:09;;;;;;;0.47;0.43;;;;;;;13.72;59.37;98516.03;5321035;26;33579;-82
2023/04/01 06:38:49;;;;;;;0.00;0.00;;;;;;;13.82;58.76;98529.41;5285142;26;33780;-82
2023/04/01 06:41:43;;;;;;;0.15;0.15;;;;;;;13.92;58.01;98527.75;5303432;26;32821;-82
2023/04/01 06:44:37;;;;;;;0.00;0.00;;;;;;;13.77;58.31;98527.12;5320425;26;34257;-82
2023/04/01 06:47:25;;;;;;;0.00;0.00;;;;;;;14.05;58.19;98528.47;5319417;26;32528;-82
2023/04/01 06:50:22;;;;;;;0.00;0.00;;;;;;;14.09;57.19;98529.91;5303661;26;33451;-82
2023/04/01 06:53:12;;;;;;;0.30;0.30;;;;;;;14.23;57.09;98531.47;5304073;26;33925;-82
2023/04/01 06:56:07;;;;;;;0.10;0.10;;;;;;;14.02;57.21;98530.53;5321302;26;33443;-82
2023/04/01 06:58:55;;;;;;;0.00;0.00;;;;;;;14.42;56.08;98527.38;5281153;26;33911;-83
2023/04/01 07:02:08;;;;;;;0.00;0.00;;;;;;;14.15;57.01;98535.69;5320094;26;36089;-83
2023/04/01 07:04:43;;;;;;;0.00;0.00;;;;;;;14.47;56.34;98530.50;5247742;26;33608;-82
2023/04/01 07:07:31;;;;;;;1.80;1.70;;;;;;;14.64;55.89;98526.53;5320383;26;32822;-83
2023/04/01 07:12:59;;;;;;;0.00;0.00;;;;;;;14.42;55.74;98528.22;5319916;26;33967;-83
2023/04/01 07:15:55;;;;;;;2.83;0.88;;;;;;;14.73;54.83;98525.78;5285548;26;34433;-82
2023/04/01 07:18:38;;;;;;;0.10;0.10;;;;;;;14.64;55.97;98531.84;5283399;26;32986;-82
2023/04/01 07:21:20;;;;;;;0.00;0.00;;;;;;;15.00;53.95;98526.22;5320162;26;33866;-82
2023/04/01 07:23:54;;;;;;;0.00;0.00;;;;;;;15.00;54.50;98526.22;5301540;26;35111;-82
2023/04/01 07:26:24;;;;;;;0.00;0.00;;;;;;;15.31;54.32;98532.47;5262627;26;33748;-82
2023/04/01 07:28:56;;;;;;;0.00;0.00;;;;;;;15.30;53.33;98527.28;5302010;26;33966;-82
2023/04/01 07:32:04;;;;;;;0.00;0.00;;;;;;;15.15;55.13;98524.09;5300498;26;33159;-82
2023/04/01 07:34:51;;;;;;;0.73;0.47;;;;;;;15.24;54.32;98531.31;5296748;26;33719;-82
2023/04/01 07:40:50;;;;;;;0.00;0.00;;;;;;;15.66;51.31;98520.72;5298098;26;32679;-82
2023/04/01 07:43:37;;;;;;;0.20;0.10;;;;;;;15.55;52.97;98526.91;5319720;26;34755;-82
2023/04/01 07:46:30;;;;;;;0.57;0.57;;;;;;;15.47;53.13;98524.03;5317391;26;33557;-82
2023/04/01 07:49:09;;;;;;;2.33;1.12;;;;;;;15.52;52.73;98518.34;5301282;26;32807;-82
2023/04/01 07:52:07;;;;;;;0.22;0.22;;;;;;;15.52;51.96;98516.53;5266032;26;32951;-82
2023/04/01 07:54:52;;;;;;;0.52;0.40;;;;;;;15.50;52.61;98521.13;5319072;26;32502;-81
2023/04/01 07:58:05;;;;;;;0.00;0.00;;;;;;;15.11;54.00;98526.16;5284083;26;33768;-81
2023/04/01 08:00:55;;;;;;;0.20;0.20;;;;;;;15.90;49.90;98525.75;5339649;26;33923;-82
2023/04/01 08:04:00;;;;;;;0.00;0.00;;;;;;;15.47;51.57;98532.03;5303033;26;34941;-82
2023/04/01 08:06:55;;;;;;;0.25;0.25;;;;;;;15.53;51.35;98536.00;5274403;26;33213;-81
2023/04/01 08:09:44;;;;;;;0.00;0.00;;;;;;;15.68;50.12;98533.91;5320135;26;34763;-82
2023/04/01 08:12:30;;;;;;;1.10;0.30;;;;;;;15.70;49.62;98535.44;5301925;26;32682;-82
2023/04/01 08:15:27;;;;;;;0.20;0.20;;;;;;;15.52;49.63;98535.13;5303780;26;32911;-81
2023/04/01 08:18:10;;;;;;;0.00;0.00;;;;;;;15.76;48.81;98534.94;5302097;26;32542;-81
2023/04/01 08:20:46;;;;;;;;;;;;;;;15.80;48.72;98540.84;5341083;26;34483;-82
2023/04/01 08:23:36;;;;;;;0.05;0.05;;;;;;;15.75;49.02;98538.56;5319383;26;34746;-81
2023/04/01 08:26:40;;;;;;;0.00;0.00;;;;;;;15.64;49.19;98537.78;5286165;26;32530;-82
2023/04/01 08:29:20;;;;;;;0.00;0.00;;;;;;;15.69;49.02;98535.59;5302817;26;33866;-81
2023/04/01 08:38:09;;;;;;;0.00;0.00;;;;;;;15.32;50.62;98528.84;5294137;26;32905;-81
2023/04/01 08:40:53;;;;;;;0.00;0.00;;;;;;;14.97;50.45;98538.91;5302884;26;34119;-82
2023/04/01 08:43:52;;;;;;;0.10;0.10;;;;;;;15.49;48.91;98534.59;5301275;26;34752;-81
2023/04/01 08:47:02;;;;;;;0.00;0.00;;;;;;;15.59;48.88;98531.00;5319716;26;34896;-82
2023/04/01 08:50:06;;;;;;;0.00;0.00;;;;;;;15.38;50.27;98543.44;5319930;26;33056;-81
2023/04/01 08:52:37;;;;;;;0.20;0.20;;;;;;;14.86;52.36;98531.81;5301438;26;33625;-81
2023/04/01 08:55:35;;;;;;;0.00;0.00;;;;;;;15.23;50.03;98544.72;5284362;26;34101;-81
2023/04/01 08:58:23;;;;;;;0.57;0.57;;;;;;;15.26;50.54;98545.31;5319572;26;33372;-82
2023/04/01 09:01:13;;;;;;;0.00;0.00;;;;;;;15.50;50.22;98538.91;5303352;26;33668;-81
2023/04/01 09:04:04;;;;;;;0.00;0.00;;;;;;;15.52;50.35;98535.13;5301747;26;33499;-83
2023/04/01 09:06:38;;;;;;;0.00;0.00;;;;;;;15.68;49.49;98539.22;5301290;26;32629;-83
2023/04/01 09:12:30;;;;;;;0.03;0.03;;;;;;;16.18;48.54;98520.72;5339465;26;33402;-83
2023/04/01 09:15:17;;;;;;;0.00;0.00;;;;;;;16.03;49.86;98517.56;5320110;26;33705;-82
2023/04/01 09:17:55;;;;;;;16.30;0.77;;;;;;;15.85;48.77;98531.47;5300291;26;33843;-82
2023/04/01 09:20:44;;;;;;;0.00;0.00;;;;;;;16.43;47.70;98520.28;5319309;26;33090;-82
2023/04/01 09:23:48;;;;;;;0.22;0.22;;;;;;;16.28;48.08;98525.09;5301688;26;34140;-82
2023/04/01 09:26:39;;;;;;;0.00;0.00;;;;;;;15.98;48.84;98531.28;5319207;26;32735;-82
2023/04/01 09:29:20;;;;;;;2.50;0.90;;;;;;;16.21;49.17;98525.78;5318037;26;33469;-83
2023/04/01 09:32:02;;;;;;;1.27;0.45;;;;;;;16.26;48.10;98520.91;5320065;26;34199;-82
2023/04/01 09:35:22;;;;;;;0.10;0.10;;;;;;;15.98;49.54;98531.28;5268315;26;32918;-82
2023/04/01 09:38:33;;;;;;;0.00;0.00;;;;;;;15.94;48.38;98521.84;5301397;26;32926;-82
2023/04/01 09:41:29;;;;;;;0.15;0.10;;;;;;;15.88;47.77;98533.03;5320580;26;34378;-82
2023/04/01 09:44:18;;;;;;;0.32;0.32;;;;;;;15.57;48.67;98532.97;5301333;26;33570;-82
2023/04/01 09:47:24;;;;;;;0.00;0.00;;;;;;;15.92;47.87;98526.50;5284122;26;32346;-83
2023/04/01 09:50:05;;;;;;;0.00;0.00;;;;;;;15.89;47.44;98529.41;5300538;26;33579;-82
2023/04/01 09:52:55;;;;;;;1.48;0.62;;;;;;;15.38;49.21;98527.47;5300521;26;33208;-83
2023/04/01 09:55:58;;;;;;;0.00;0.00;;;;;;;15.53;48.59;98538.69;5319082;26;33307;-82
2023/04/01 09:59:19;;;;;;;0.20;0.20;;;;;;;15.99;46.92;98535.63;5301426;26;33521;-82
2023/04/01 10:02:11;;;;;;;0.00;0.00;;;;;;;15.73;47.58;98539.69;5291338;27;34224;-82
2023/04/01 10:04:56;;;;;;;0.00;0.00;;;;;;;15.59;49.73;98541.66;5291443;27;33616;-83
2023/04/01 10:07:52;;;;;;;0.00;0.00;;;;;;;15.75;48.11;98540.38;5307427;26;35085;-82
2023/04/01 10:10:38;;;;;;;0.00;0.00;;;;;;;15.92;47.01;98534.47;5319583;26;33027;-82
2023/04/01 10:13:20;;;;;;;0.55;0.22;;;;;;;15.36;48.63;98545.37;5300800;26;33523;-82
2023/04/01 10:16:20;;;;;;;0.00;0.00;;;;;;;15.47;48.31;98548.00;5283120;26;34642;-82
2023/04/01 10:19:14;;;;;;;0.00;0.00;;;;;;;15.01;49.57;98554.47;5284341;26;33932;-82
2023/04/01 10:22:00;;;;;;;0.62;0.62;;;;;;;15.36;49.37;98545.37;5339810;26;33558;-82
2023/04/01 10:25:04;;;;;;;0.00;0.00;;;;;;;15.17;49.63;98553.22;5306241;26;34578;-82
2023/04/01 10:28:33;;;;;;;1.45;0.52;;;;;;;15.53;48.92;98541.34;5319209;26;33775;-82
2023/04/01 10:33:59;;;;;;;0.45;0.40;;;;;;;16.01;47.85;98539.00;5319241;26;32230;-82
2023/04/01 10:36:52;;;;;;;0.00;0.00;;;;;;;15.99;47.52;98538.28;5337548;26;34094;-82
2023/04/01 10:39:48;;;;;;;0.30;0.30;;;;;;;15.76;47.38;98536.75;5301519;26;34170;-83
2023/04/01 10:42:52;;;;;;;0.10;0.10;;;;;;;15.94;47.72;98544.97;5300643;26;34396;-82
2023/04/01 10:46:00;;;;;;;0.13;0.13;;;;;;;16.06;47.33;98534.12;5307732;26;35064;-82
2023/04/01 10:48:49;;;;;;;0.00;0.00;;;;;;;16.27;46.27;98530.56;5320965;26;33711;-82
2023/04/01 10:51:45;;;;;;;0.00;0.00;;;;;;;16.43;45.97;98516.78;5320669;26;35184;-82
2023/04/01 10:57:40;;;;;;;3.17;1.20;;;;;;;16.16;46.61;98533.34;5319181;26;32990;-82
2023/04/01 11:00:43;;;;;;;0.00;0.00;;;;;;;16.50;46.41;98526.72;5303216;26;32936;-83
2023/04/01 11:03:54;;;;;;;0.00;0.00;;;;;;;16.41;46.15;98516.03;5320395;26;32781;-82
2023/04/01 11:06:44;;;;;;;0.08;0.08;;;;;;;16.60;47.19;98526.75;5319862;26;34263;-83
2023/04/01 11:09:36;;;;;;;1.65;0.60;;;;;;;16.51;47.19;98519.56;5320578;26;34245;-82
2023/04/01 11:12:25;;;;;;;0.28;0.20;;;;;;;16.43;46.43;98516.78;5303595;26;34623;-82
2023/04/01 11:15:11;;;;;;;0.00;0.00;;;;;;;16.86;45.44;98511.16;5302759;26;34413;-82
2023/04/01 11:18:01;;;;;;;0.00;0.00;;;;;;;17.10;43.53;98524.94;5284753;26;32721;-82
2023/04/01 11:23:49;;;;;;;0.08;0.08;;;;;;;17.12;42.79;98520.28;5339277;26;33957;-82
2023/04/01 11:26:38;;;;;;;0.00;0.00;;;;;;;16.98;43.74;98515.34;5320279;26;34466;-81
2023/04/01 11:32:43;;;;;;;0.00;0.00;;;;;;;17.09;44.31;98515.25;5340306;26;33084;-83
2023/04/01 11:35:20;;;;;;;;;;;;;;;17.34;45.26;98505.00;5301908;26;33048;-82
2023/04/01 11:38:24;;;;;;;0.00;0.00;;;;;;;18.07;43.03;98511.47;5321195;26;34286;-83
2023/04/01 11:41:48;;;;;;;0.00;0.00;;;;;;;17.44;43.19;98515.66;5322344;26;34623;-82
2023/04/01 11:44:23;;;;;;;0.00;0.00;;;;;;;17.53;41.80;98504.12;5330772;26;33349;-82
2023/04/01 11:47:19;;;;;;;0.30;0.00;;;;;;;17.75;42.56;98508.31;5320720;26;34569;-82
2023/04/01 11:50:12;;;;;;;0.00;0.00;;;;;;;17.79;42.83;98518.56;5319931;26;33119;-82
2023/04/01 11:52:58;;;;;;;0.10;0.10;;;;;;;17.07;42.41;98525.19;5301498;26;32591;-82
2023/04/01 11:55:52;;;;;;;0.00;0.00;;;;;;;17.55;41.74;98528.84;5321984;26;32891;-82
2023/04/01 11:58:41;;;;;;;0.00;0.00;;;;;;;17.46;42.30;98530.53;5318736;26;34520;-82
2023/04/01 12:01:27;;;;;;;0.00;0.00;;;;;;;17.46;43.24;98519.00;5340498;26;34535;-81
2023/04/01 12:04:28;;;;;;;0.00;0.00;;;;;;;17.49;41.78;98527.59;5302929;26;32571;-81
2023/04/01 12:07:16;;;;;;;0.00;0.00;;;;;;;17.20;43.60;98529.44;5332108;26;32978;-82
2023/04/01 12:10:23;;;;;;;1.90;0.77;;;;;;;17.50;43.48;98523.94;5320338;26;34957;-81
2023/04/01 12:16:16;;;;;;;0.00;0.00;;;;;;;17.26;42.65;98521.69;5303062;26;33231;-81
2023/04/01 12:18:48;;;;;;;0.00;0.00;;;;;;;17.13;42.34;98529.97;5338441;26;33497;-81
2023/04/01 12:21:21;;;;;;;0.10;0.10;;;;;;;17.57;42.07;98525.06;5319975;26;32410;-81
2023/04/01 12:24:27;;;;;;;0.20;0.20;;;;;;;17.72;41.85;98520.13;5319792;26;33073;-81
2023/04/01 12:27:19;;;;;;;0.00;0.00;;;;;;;18.43;39.21;98507.13;5288907;26;34290;-81
2023/04/01 12:30:19;;;;;;;0.13;0.13;;;;;;;18.07;40.56;98519.47;5320736;26;33417;-80
2023/04/01 12:33:13;;;;;;;1.90;0.88;;;;;;;18.23;39.83;98518.00;5338659;26;33800;-81
2023/04/01 12:36:01;;;;;;;0.10;0.10;;;;;;;18.14;39.32;98517.09;5338009;26;33764;-80
2023/04/01 12:39:09;;;;;;;0.00;0.00;;;;;;;17.52;42.24;98519.31;5317815;26;33555;-81
2023/04/01 12:42:16;;;;;;;0.00;0.00;;;;;;;17.86;40.24;98521.53;5320945;26;34039;-81
2023/04/01 12:45:14;;;;;;;0.00;0.00;;;;;;;17.62;41.30;98527.31;5319730;26;33549;-81
2023/04/01 12:47:56;;;;;;;0.03;0.00;;;;;;;17.42;41.88;98518.44;5314695;26;34663;-81
2023/04/01 12:50:46;;;;;;;0.55;0.05;;;;;;;17.30;42.65;98524.94;5285640;26;35144;-82
2023/04/01 12:53:39;;;;;;;0.00;0.00;;;;;;;17.73;41.04;98527.16;5304321;26;35085;-81
2023/04/01 12:56:45;;;;;;;0.60;0.32;;;;;;;17.55;42.08;98529.69;5319630;26;34291;-81
2023/04/01 12:59:26;;;;;;;0.00;0.00;;;;;;;17.69;41.23;98515.06;5284245;26;34655;-81
2023/04/01 13:02:23;;;;;;;0.00;0.00;;;;;;;17.33;43.80;98522.84;5320084;26;32765;-82
2023/04/01 13:05:11;;;;;;;0.57;0.55;;;;;;;17.45;43.35;98522.69;5297756;27;32567;-82
2023/04/01 13:08:08;;;;;;;0.85;0.65;;;;;;;17.63;43.94;98515.63;5321118;26;33866;-82
2023/04/01 13:10:59;;;;;;;0.00;0.00;;;;;;;18.07;41.32;98514.13;5320858;26;33851;-82
2023/04/01 13:13:53;;;;;;;0.00;0.00;;;;;;;18.58;39.88;98504.78;5284550;26;33119;-82
2023/04/01 13:16:57;;;;;;;0.10;0.10;;;;;;;18.34;40.30;98510.66;5301999;26;32564;-82